Time;durP1;ratioP1;P1;durP2;ratioP2;P2;SDS_P1;SDS_P2;PMS_P1;PMS_P2;Temp;Humidity;BMP_temperature;BMP_pressure;BME280_temperature;BME280_humidity;BME280_pressure;Samples;Min_cycle;Max_cycle;Signal;HPM_P1;HPM_P2
2021/01/28 00:00:14;;;;;;;17.73;10.40;;;;;;;;;;6242156;23;20095;-91
2021/01/28 00:02:40;;;;;;;18.45;10.07;;;;;;;;;;6241788;23;20297;-90
2021/01/28 00:05:08;;;;;;;16.48;9.90;;;;;;;;;;6242002;23;20110;-91
2021/01/28 00:07:35;;;;;;;20.52;11.23;;;;;;;;;;6243033;22;20028;-90
2021/01/28 00:10:05;;;;;;;20.98;11.10;;;;;;;;;;6257609;22;20028;-90
2021/01/28 00:12:35;;;;;;;17.08;10.52;;;;;;;;;;6245833;23;20020;-91
2021/01/28 00:15:04;;;;;;;24.33;11.40;;;;;;;;;;6243508;23;20028;-91
2021/01/28 00:17:30;;;;;;;21.08;12.25;;;;;;;;;;6245046;22;20035;-90
2021/01/28 00:20:04;;;;;;;21.80;11.52;;;;;;;;;;6243982;23;20024;-90
2021/01/28 00:22:31;;;;;;;19.25;11.60;;;;;;;;;;6243182;23;20078;-91
2021/01/28 00:25:05;;;;;;;19.80;11.40;;;;;;;;;;6246688;22;20020;-90
2021/01/28 00:27:33;;;;;;;18.17;10.05;;;;;;;;;;6244457;23;20055;-91
2021/01/28 00:30:05;;;;;;;19.52;12.18;;;;;;;;;;6243047;23;20122;-90
2021/01/28 00:32:31;;;;;;;20.08;11.55;;;;;;;;;;6243947;22;20028;-90
2021/01/28 00:35:01;;;;;;;21.35;11.68;;;;;;;;;;6243823;23;20052;-90
2021/01/28 00:37:42;;;;;;;21.70;11.98;;;;;;;;;;6242972;23;20110;-90
2021/01/28 00:40:09;;;;;;;21.30;11.98;;;;;;;;;;6244951;23;20024;-90
2021/01/28 00:42:35;;;;;;;23.15;11.40;;;;;;;;;;6244175;22;20360;-90
2021/01/28 00:45:02;;;;;;;15.82;11.35;;;;;;;;;;6244444;23;20175;-91
2021/01/28 00:47:36;;;;;;;16.85;10.27;;;;;;;;;;6246716;22;20028;-90
2021/01/28 00:50:05;;;;;;;15.48;9.82;;;;;;;;;;6248703;23;20023;-90
2021/01/28 00:52:49;;;;;;;15.90;9.55;;;;;;;;;;6259856;22;20384;-90
2021/01/28 00:55:17;;;;;;;17.83;10.15;;;;;;;;;;6254108;23;20024;-90
2021/01/28 00:57:43;;;;;;;13.35;7.65;;;;;;;;;;6245267;22;20495;-90
2021/01/28 01:00:15;;;;;;;13.07;7.15;;;;;;;;;;6245757;22;20062;-90
2021/01/28 01:02:46;;;;;;;14.63;8.18;;;;;;;;;;6248054;22;20035;-90
2021/01/28 01:05:14;;;;;;;14.55;7.85;;;;;;;;;;6248058;22;20031;-90
2021/01/28 01:07:41;;;;;;;11.57;7.15;;;;;;;;;;6263699;22;20032;-88
2021/01/28 01:10:11;;;;;;;13.00;6.00;;;;;;;;;;6268998;22;20015;-90
2021/01/28 01:12:37;;;;;;;11.15;7.38;;;;;;;;;;6261545;22;20035;-90
2021/01/28 01:15:07;;;;;;;13.77;7.90;;;;;;;;;;6247265;23;20043;-90
2021/01/28 01:17:36;;;;;;;15.38;7.25;;;;;;;;;;6247083;23;20067;-90
2021/01/28 01:20:04;;;;;;;12.88;6.93;;;;;;;;;;6257584;22;20016;-87
2021/01/28 01:22:35;;;;;;;15.05;7.28;;;;;;;;;;6267832;22;20095;-90
2021/01/28 01:25:04;;;;;;;15.52;7.45;;;;;;;;;;6252296;22;20042;-90
2021/01/28 01:27:33;;;;;;;17.20;6.90;;;;;;;;;;6247364;23;20039;-90
2021/01/28 01:30:03;;;;;;;16.13;7.63;;;;;;;;;;6245981;23;20024;-90
2021/01/28 01:32:33;;;;;;;18.92;8.52;;;;;;;;;;6246897;23;20035;-90
2021/01/28 01:35:08;;;;;;;14.57;8.10;;;;;;;;;;6248969;23;20104;-90
2021/01/28 01:37:39;;;;;;;12.88;7.57;;;;;;;;;;6249051;23;20032;-90
2021/01/28 01:40:07;;;;;;;14.45;8.07;;;;;;;;;;6251207;23;20298;-89
2021/01/28 01:42:43;;;;;;;22.38;8.50;;;;;;;;;;6249876;22;20024;-89
2021/01/28 01:45:09;;;;;;;17.73;8.70;;;;;;;;;;6246658;23;20074;-90
2021/01/28 01:47:41;;;;;;;17.08;8.82;;;;;;;;;;6246501;23;20416;-89
2021/01/28 01:50:30;;;;;;;16.90;8.80;;;;;;;;;;6247945;22;20083;-90
2021/01/28 01:53:00;;;;;;;20.52;9.15;;;;;;;;;;6245591;23;20625;-90
2021/01/28 01:55:28;;;;;;;13.02;8.77;;;;;;;;;;6246161;22;20046;-90
2021/01/28 01:57:55;;;;;;;15.32;8.07;;;;;;;;;;6245664;23;20031;-90
2021/01/28 02:00:22;;;;;;;13.15;7.45;;;;;;;;;;6244065;23;20221;-90
2021/01/28 02:02:54;;;;;;;20.73;8.75;;;;;;;;;;6244822;22;20255;-90
2021/01/28 02:05:50;;;;;;;17.75;7.45;;;;;;;;;;6244470;23;20078;-90
2021/01/28 02:08:18;;;;;;;16.40;7.25;;;;;;;;;;6218398;23;20051;-91
2021/01/28 02:10:47;;;;;;;14.98;6.30;;;;;;;;;;6243375;23;20028;-90
2021/01/28 02:13:15;;;;;;;11.50;6.05;;;;;;;;;;6243333;23;20201;-90
2021/01/28 02:15:48;;;;;;;15.50;6.75;;;;;;;;;;6243334;23;20063;-90
2021/01/28 02:18:16;;;;;;;15.77;6.68;;;;;;;;;;6245438;22;20126;-90
2021/01/28 02:20:52;;;;;;;11.95;6.72;;;;;;;;;;6245303;23;20024;-90
2021/01/28 02:23:18;;;;;;;;;;;;;;;;;;6244633;23;20028;-89
2021/01/28 02:25:48;;;;;;;12.35;5.65;;;;;;;;;;6245815;22;19920;-89
2021/01/28 02:28:16;;;;;;;11.13;5.40;;;;;;;;;;6245432;23;20308;-89
2021/01/28 02:30:43;;;;;;;10.32;5.80;;;;;;;;;;6244559;23;20048;-89
2021/01/28 02:33:11;;;;;;;9.60;5.50;;;;;;;;;;6246228;23;20526;-90
2021/01/28 02:35:38;;;;;;;11.18;5.55;;;;;;;;;;6244710;23;20036;-89
2021/01/28 02:38:06;;;;;;;11.35;5.80;;;;;;;;;;6245017;23;20024;-89
2021/01/28 02:40:32;;;;;;;12.05;6.38;;;;;;;;;;6248454;23;20082;-90
2021/01/28 02:42:58;;;;;;;11.98;5.32;;;;;;;;;;6254241;22;20048;-90
2021/01/28 02:45:27;;;;;;;9.88;5.32;;;;;;;;;;6268422;22;20012;-90
2021/01/28 02:47:55;;;;;;;9.85;5.43;;;;;;;;;;6268231;22;20024;-90
2021/01/28 02:50:22;;;;;;;11.18;5.82;;;;;;;;;;6265162;23;20034;-89
2021/01/28 02:52:52;;;;;;;9.85;5.57;;;;;;;;;;6265794;23;20072;-89
2021/01/28 02:55:18;;;;;;;10.40;5.45;;;;;;;;;;6249022;23;20254;-89
2021/01/28 02:57:44;;;;;;;13.95;5.57;;;;;;;;;;6248912;23;20102;-89
2021/01/28 03:00:16;;;;;;;8.93;4.97;;;;;;;;;;6247753;23;20031;-89
2021/01/28 03:02:49;;;;;;;10.43;5.68;;;;;;;;;;6247463;22;20100;-90
2021/01/28 03:05:16;;;;;;;13.05;6.25;;;;;;;;;;6247043;22;20024;-89
2021/01/28 03:07:42;;;;;;;11.52;6.68;;;;;;;;;;6246330;23;20034;-89
2021/01/28 03:10:08;;;;;;;14.82;6.40;;;;;;;;;;6246357;23;20028;-89
2021/01/28 03:12:37;;;;;;;11.57;5.63;;;;;;;;;;6247127;22;20032;-89
2021/01/28 03:15:18;;;;;;;12.57;6.10;;;;;;;;;;6262154;22;20047;-90
2021/01/28 03:17:47;;;;;;;11.13;5.45;;;;;;;;;;6250826;22;20031;-89
2021/01/28 03:20:14;;;;;;;12.32;5.45;;;;;;;;;;6249562;22;20024;-89
2021/01/28 03:22:43;;;;;;;13.15;5.50;;;;;;;;;;6276833;22;20283;-89
2021/01/28 03:25:14;;;;;;;8.57;5.65;;;;;;;;;;6252073;22;20024;-89
2021/01/28 03:27:41;;;;;;;9.43;5.38;;;;;;;;;;6251487;22;20257;-89
2021/01/28 03:30:14;;;;;;;12.68;5.53;;;;;;;;;;6249906;22;20054;-89
2021/01/28 03:32:40;;;;;;;14.15;5.50;;;;;;;;;;6251203;22;20027;-89
2021/01/28 03:35:07;;;;;;;9.27;5.30;;;;;;;;;;6251730;22;20059;-90
2021/01/28 03:37:34;;;;;;;10.00;5.50;;;;;;;;;;6280239;22;20027;-89
2021/01/28 03:40:01;;;;;;;9.98;5.50;;;;;;;;;;6264160;22;20034;-90
2021/01/28 03:42:27;;;;;;;8.02;5.30;;;;;;;;;;6295296;22;20315;-90
2021/01/28 03:44:53;;;;;;;12.85;5.50;;;;;;;;;;6254419;22;20051;-90
2021/01/28 03:47:20;;;;;;;14.48;5.85;;;;;;;;;;6251367;22;20077;-89
2021/01/28 03:49:47;;;;;;;10.50;5.32;;;;;;;;;;6277344;22;20031;-88
2021/01/28 03:52:13;;;;;;;8.88;5.63;;;;;;;;;;6249378;22;20027;-88
2021/01/28 03:54:40;;;;;;;19.42;5.65;;;;;;;;;;6248865;22;20027;-88
2021/01/28 03:57:06;;;;;;;15.57;6.40;;;;;;;;;;6250517;22;20062;-88
2021/01/28 03:59:33;;;;;;;11.57;6.72;;;;;;;;;;6249221;22;20151;-88
2021/01/28 04:01:59;;;;;;;12.40;7.03;;;;;;;;;;6249369;22;20190;-88
2021/01/28 04:04:28;;;;;;;17.23;7.20;;;;;;;;;;6251854;22;20023;-88
2021/01/28 04:06:55;;;;;;;20.30;6.47;;;;;;;;;;6253352;22;20070;-88
2021/01/28 04:09:22;;;;;;;15.60;6.93;;;;;;;;;;6252579;22;20028;-88
2021/01/28 04:11:49;;;;;;;15.15;6.65;;;;;;;;;;6250353;22;20114;-87
2021/01/28 04:14:17;;;;;;;13.82;6.50;;;;;;;;;;6251546;22;20058;-87
2021/01/28 04:16:45;;;;;;;13.50;6.53;;;;;;;;;;6250970;22;20023;-87
2021/01/28 04:19:12;;;;;;;16.15;7.22;;;;;;;;;;6278620;22;20369;-88
2021/01/28 04:21:39;;;;;;;18.10;7.40;;;;;;;;;;6278686;22;20356;-88
2021/01/28 04:24:06;;;;;;;14.32;6.93;;;;;;;;;;6280013;22;20032;-87
2021/01/28 04:26:34;;;;;;;15.52;7.00;;;;;;;;;;6279236;22;20070;-87
2021/01/28 04:29:02;;;;;;;15.75;7.10;;;;;;;;;;6252470;22;20023;-87
2021/01/28 04:31:31;;;;;;;12.95;6.88;;;;;;;;;;6252132;22;20031;-87
2021/01/28 04:34:04;;;;;;;12.38;6.03;;;;;;;;;;6253516;22;20023;-87
2021/01/28 04:36:38;;;;;;;11.32;6.10;;;;;;;;;;6252124;22;20082;-88
2021/01/28 04:39:06;;;;;;;13.55;6.50;;;;;;;;;;6282491;22;20028;-88
2021/01/28 04:41:37;;;;;;;16.17;6.95;;;;;;;;;;6260348;22;20040;-87
2021/01/28 04:44:07;;;;;;;11.40;7.00;;;;;;;;;;6273985;22;20016;-89
2021/01/28 04:46:51;;;;;;;12.73;6.70;;;;;;;;;;6273183;22;20035;-88
2021/01/28 04:49:20;;;;;;;10.23;6.22;;;;;;;;;;6282051;22;20083;-89
2021/01/28 04:51:58;;;;;;;15.55;7.20;;;;;;;;;;6251632;22;20196;-88
2021/01/28 04:54:34;;;;;;;15.18;7.47;;;;;;;;;;6257731;22;20022;-88
2021/01/28 04:57:07;;;;;;;12.38;7.82;;;;;;;;;;6268857;22;20022;-87
2021/01/28 04:59:42;;;;;;;17.38;8.57;;;;;;;;;;6257209;22;20031;-87
2021/01/28 05:02:36;;;;;;;16.85;9.05;;;;;;;;;;6249302;22;20412;-87
2021/01/28 05:05:05;;;;;;;22.55;9.13;;;;;;;;;;6242705;22;20034;-87
2021/01/28 05:07:36;;;;;;;21.52;9.38;;;;;;;;;;6280342;22;20074;-88
2021/01/28 05:10:25;;;;;;;19.83;9.63;;;;;;;;;;6250625;22;20034;-88
2021/01/28 05:13:07;;;;;;;12.45;7.32;;;;;;;;;;6248797;22;20043;-89
2021/01/28 05:16:13;;;;;;;15.45;7.28;;;;;;;;;;6249479;22;20032;-89
2021/01/28 05:19:01;;;;;;;11.52;7.03;;;;;;;;;;6236949;22;20028;-89
2021/01/28 05:21:45;;;;;;;13.85;7.00;;;;;;;;;;6248561;22;20250;-89
2021/01/28 05:24:30;;;;;;;12.63;7.18;;;;;;;;;;6250415;22;20328;-90
2021/01/28 05:26:58;;;;;;;;;;;;;;;;;;6249390;22;20055;-89
2021/01/28 05:29:31;;;;;;;14.40;7.32;;;;;;;;;;6251807;22;19919;-89
2021/01/28 05:32:22;;;;;;;14.95;7.57;;;;;;;;;;6249754;22;20027;-89
2021/01/28 05:35:14;;;;;;;17.60;8.70;;;;;;;;;;6278602;22;20024;-89
2021/01/28 05:38:04;;;;;;;14.55;8.82;;;;;;;;;;6275593;22;20024;-89
2021/01/28 05:40:39;;;;;;;17.77;8.13;;;;;;;;;;6250634;22;20086;-89
2021/01/28 05:43:42;;;;;;;18.02;9.05;;;;;;;;;;6251507;22;20094;-88
2021/01/28 05:46:21;;;;;;;17.48;8.52;;;;;;;;;;6248257;22;20334;-88
2021/01/28 05:49:09;;;;;;;16.95;8.48;;;;;;;;;;6276878;22;20424;-88
2021/01/28 05:51:41;;;;;;;15.02;7.78;;;;;;;;;;6252109;22;20359;-89
2021/01/28 05:54:28;;;;;;;14.75;7.45;;;;;;;;;;6248294;22;20039;-89
2021/01/28 05:56:59;;;;;;;15.65;8.43;;;;;;;;;;6249025;22;20034;-90
2021/01/28 06:00:01;;;;;;;17.23;8.38;;;;;;;;;;6251472;22;20058;-90
2021/01/28 06:02:39;;;;;;;13.88;7.43;;;;;;;;;;6274788;22;20297;-88
2021/01/28 06:05:21;;;;;;;15.45;9.15;;;;;;;;;;6278116;22;20297;-88
2021/01/28 06:08:26;;;;;;;18.58;8.48;;;;;;;;;;6255246;22;20028;-89
2021/01/28 06:11:26;;;;;;;15.48;8.07;;;;;;;;;;6282664;22;20074;-89
2021/01/28 06:14:01;;;;;;;13.38;7.25;;;;;;;;;;6253423;22;20028;-89
2021/01/28 06:16:51;;;;;;;14.77;7.18;;;;;;;;;;6252218;22;20030;-88
2021/01/28 06:19:29;;;;;;;12.18;7.32;;;;;;;;;;6252896;22;20281;-89
2021/01/28 06:21:57;;;;;;;18.15;9.15;;;;;;;;;;6252852;22;20080;-88
2021/01/28 06:24:23;;;;;;;17.73;8.30;;;;;;;;;;6253934;22;20075;-89
2021/01/28 06:27:05;;;;;;;21.92;8.77;;;;;;;;;;6257727;22;20110;-90
2021/01/28 06:29:41;;;;;;;20.33;8.85;;;;;;;;;;6295023;22;20028;-89
2021/01/28 06:32:26;;;;;;;18.38;9.32;;;;;;;;;;6259695;22;20027;-89
2021/01/28 06:35:27;;;;;;;15.88;8.40;;;;;;;;;;6252754;22;20192;-89
2021/01/28 06:38:08;;;;;;;22.88;9.93;;;;;;;;;;6276777;22;20084;-90
2021/01/28 06:40:38;;;;;;;20.25;9.82;;;;;;;;;;6251868;22;20023;-89
2021/01/28 06:43:15;;;;;;;14.93;8.65;;;;;;;;;;6252355;22;20032;-90
2021/01/28 06:45:57;;;;;;;18.80;10.02;;;;;;;;;;6248375;22;20042;-90
2021/01/28 06:48:45;;;;;;;14.43;7.68;;;;;;;;;;6251255;22;20379;-90
2021/01/28 06:51:22;;;;;;;18.65;9.00;;;;;;;;;;6252185;22;20038;-89
2021/01/28 06:53:54;;;;;;;15.80;8.35;;;;;;;;;;6274918;22;20464;-89
2021/01/28 06:56:43;;;;;;;18.50;9.20;;;;;;;;;;6273601;22;20051;-89
2021/01/28 06:59:32;;;;;;;13.02;7.68;;;;;;;;;;6273909;22;20267;-88
2021/01/28 07:02:20;;;;;;;24.98;13.25;;;;;;;;;;6279191;22;20040;-89
2021/01/28 07:05:00;;;;;;;24.02;13.50;;;;;;;;;;6273591;22;20024;-89
2021/01/28 07:07:30;;;;;;;22.13;12.52;;;;;;;;;;6274916;22;20058;-89
2021/01/28 07:10:11;;;;;;;18.67;10.48;;;;;;;;;;6277173;22;20054;-89
2021/01/28 07:15:37;;;;;;;22.15;9.68;;;;;;;;;;6275749;22;20032;-89
2021/01/28 07:18:47;;;;;;;15.77;8.90;;;;;;;;;;6274737;22;20023;-90
2021/01/28 07:21:46;;;;;;;16.92;8.30;;;;;;;;;;6218845;22;20058;-90
2021/01/28 07:24:32;;;;;;;16.77;8.23;;;;;;;;;;6270971;22;20023;-89
2021/01/28 07:27:06;;;;;;;18.13;9.35;;;;;;;;;;6273817;22;20093;-89
2021/01/28 07:29:50;;;;;;;17.92;9.05;;;;;;;;;;6273293;22;20255;-89
2021/01/28 07:32:24;;;;;;;19.17;8.70;;;;;;;;;;6275337;22;20081;-91
2021/01/28 07:35:23;;;;;;;20.00;9.48;;;;;;;;;;6279753;22;20046;-91
2021/01/28 07:38:32;;;;;;;22.70;9.77;;;;;;;;;;6279826;22;20027;-90
2021/01/28 07:41:08;;;;;;;17.80;10.77;;;;;;;;;;6172142;22;20467;-89
2021/01/28 07:44:10;;;;;;;24.17;11.23;;;;;;;;;;6279492;22;20081;-89
2021/01/28 07:47:00;;;;;;;28.05;12.43;;;;;;;;;;6243126;22;20071;-89
2021/01/28 07:49:36;;;;;;;24.52;14.05;;;;;;;;;;6281302;22;20054;-89
2021/01/28 07:52:04;;;;;;;24.95;12.15;;;;;;;;;;6276539;22;20038;-89
2021/01/28 07:54:31;;;;;;;26.52;12.32;;;;;;;;;;6275275;22;20031;-89
2021/01/28 07:57:01;;;;;;;26.48;11.57;;;;;;;;;;6273857;22;20195;-88
2021/01/28 07:59:49;;;;;;;23.23;11.05;;;;;;;;;;6274136;22;20456;-88
2021/01/28 08:02:30;;;;;;;16.52;9.63;;;;;;;;;;6275211;22;20046;-89
2021/01/28 08:05:03;;;;;;;18.42;10.57;;;;;;;;;;6278457;22;20075;-89
2021/01/28 08:07:44;;;;;;;22.10;9.82;;;;;;;;;;6278956;22;20089;-90
2021/01/28 08:10:36;;;;;;;19.50;8.75;;;;;;;;;;6280006;22;20024;-90
2021/01/28 08:13:27;;;;;;;16.00;8.52;;;;;;;;;;6278732;22;20439;-89
2021/01/28 08:16:02;;;;;;;22.95;9.73;;;;;;;;;;6287161;22;20011;-89
2021/01/28 08:18:36;;;;;;;22.17;9.48;;;;;;;;;;6294990;22;20246;-90
2021/01/28 08:21:11;;;;;;;45.58;11.60;;;;;;;;;;6284226;22;20218;-90
2021/01/28 08:23:46;;;;;;;19.15;9.77;;;;;;;;;;6277058;22;20428;-89
2021/01/28 08:26:24;;;;;;;18.83;9.27;;;;;;;;;;6277274;22;20035;-89
2021/01/28 08:29:26;;;;;;;27.10;8.77;;;;;;;;;;6295611;22;20012;-89
2021/01/28 08:32:02;;;;;;;23.80;9.00;;;;;;;;;;6286212;22;20027;-88
2021/01/28 08:34:44;;;;;;;15.82;8.40;;;;;;;;;;6281881;22;20244;-89
2021/01/28 08:37:14;;;;;;;14.98;7.80;;;;;;;;;;6283212;22;20217;-89
2021/01/28 08:39:50;;;;;;;16.50;8.02;;;;;;;;;;6278835;22;20364;-90
2021/01/28 08:42:32;;;;;;;15.20;7.03;;;;;;;;;;6298025;22;20079;-88
2021/01/28 08:45:25;;;;;;;14.43;7.20;;;;;;;;;;6279591;22;20038;-88
2021/01/28 08:48:00;;;;;;;21.15;9.25;;;;;;;;;;6290268;22;20064;-90
2021/01/28 08:50:33;;;;;;;19.13;9.63;;;;;;;;;;6294840;22;20042;-91
2021/01/28 08:53:05;;;;;;;23.80;11.68;;;;;;;;;;6293595;22;20067;-90
2021/01/28 08:55:34;;;;;;;21.15;10.60;;;;;;;;;;6292957;22;20042;-90
2021/01/28 08:58:07;;;;;;;27.75;12.57;;;;;;;;;;6278514;22;20208;-90
2021/01/28 09:00:41;;;;;;;26.38;12.13;;;;;;;;;;6275235;22;20033;-89
2021/01/28 09:03:08;;;;;;;21.00;10.68;;;;;;;;;;6276886;22;20072;-89
2021/01/28 09:05:36;;;;;;;25.10;11.38;;;;;;;;;;6279520;22;20023;-90
2021/01/28 09:08:04;;;;;;;28.15;11.57;;;;;;;;;;6276376;22;20185;-90
2021/01/28 09:10:36;;;;;;;21.35;11.15;;;;;;;;;;6282039;22;20139;-90
2021/01/28 09:13:14;;;;;;;15.88;8.05;;;;;;;;;;6278566;22;20497;-89
2021/01/28 09:15:43;;;;;;;14.40;8.20;;;;;;;;;;6277969;22;20027;-89
2021/01/28 09:18:29;;;;;;;15.77;8.40;;;;;;;;;;6291374;22;20199;-89
2021/01/28 09:21:07;;;;;;;13.98;9.27;;;;;;;;;;6295883;22;20016;-88
2021/01/28 09:23:33;;;;;;;16.73;8.82;;;;;;;;;;6281382;22;20366;-89
2021/01/28 09:26:19;;;;;;;30.73;8.43;;;;;;;;;;6279599;22;20203;-89
2021/01/28 09:28:46;;;;;;;25.27;8.32;;;;;;;;;;6280942;22;20027;-89
2021/01/28 09:31:22;;;;;;;18.23;8.55;;;;;;;;;;6281426;22;20023;-89
2021/01/28 09:33:49;;;;;;;;;;;;;;;;;;6278436;22;20068;-90
2021/01/28 09:36:19;;;;;;;17.20;8.52;;;;;;;;;;6274011;22;19955;-90
2021/01/28 09:39:05;;;;;;;16.00;7.97;;;;;;;;;;6275837;22;20053;-89
2021/01/28 09:41:37;;;;;;;15.85;7.93;;;;;;;;;;6276376;22;20063;-91
2021/01/28 09:44:06;;;;;;;14.77;8.80;;;;;;;;;;6283623;22;20058;-88
2021/01/28 09:46:39;;;;;;;15.90;7.97;;;;;;;;;;6284936;22;20070;-89
2021/01/28 09:49:35;;;;;;;11.15;7.18;;;;;;;;;;6282460;22;20046;-89
2021/01/28 09:52:19;;;;;;;12.68;8.43;;;;;;;;;;6276023;22;20055;-89
2021/01/28 09:55:02;;;;;;;14.05;7.53;;;;;;;;;;6275280;22;20035;-90
2021/01/28 09:57:29;;;;;;;13.90;7.75;;;;;;;;;;6273174;22;20051;-89
2021/01/28 10:00:01;;;;;;;16.15;8.48;;;;;;;;;;6274686;22;20024;-89
2021/01/28 10:02:41;;;;;;;13.45;8.30;;;;;;;;;;6271612;22;20035;-89
2021/01/28 10:05:08;;;;;;;16.30;8.55;;;;;;;;;;6278041;22;20057;-89
2021/01/28 10:07:43;;;;;;;13.75;8.50;;;;;;;;;;6277778;22;20032;-90
2021/01/28 10:10:29;;;;;;;14.55;7.85;;;;;;;;;;6274648;22;20034;-89
2021/01/28 10:13:27;;;;;;;14.57;8.27;;;;;;;;;;6274086;22;20028;-89
2021/01/28 10:15:54;;;;;;;13.23;8.75;;;;;;;;;;6282827;22;20028;-90
2021/01/28 10:18:32;;;;;;;14.70;8.90;;;;;;;;;;6282709;22;20023;-89
2021/01/28 10:21:01;;;;;;;14.25;9.25;;;;;;;;;;6275893;22;20291;-89
2021/01/28 10:23:32;;;;;;;19.80;9.07;;;;;;;;;;6275083;22;20027;-90
2021/01/28 10:25:58;;;;;;;17.60;10.13;;;;;;;;;;6280330;22;20040;-90
2021/01/28 10:28:27;;;;;;;15.05;9.52;;;;;;;;;;6277313;22;20041;-90
2021/01/28 10:30:57;;;;;;;14.15;8.77;;;;;;;;;;6277611;22;20122;-90
2021/01/28 10:33:26;;;;;;;16.95;8.10;;;;;;;;;;6283414;22;20447;-90
2021/01/28 10:35:59;;;;;;;17.25;9.13;;;;;;;;;;6274327;22;20030;-89
2021/01/28 10:38:27;;;;;;;16.77;9.00;;;;;;;;;;6274328;22;20364;-89
2021/01/28 10:40:55;;;;;;;13.98;8.55;;;;;;;;;;6274235;22;20023;-89
2021/01/28 10:43:22;;;;;;;11.43;7.93;;;;;;;;;;6273985;22;20386;-89
2021/01/28 10:45:49;;;;;;;18.70;9.77;;;;;;;;;;6278018;22;20107;-89
2021/01/28 10:48:18;;;;;;;14.00;8.02;;;;;;;;;;6275207;22;20306;-89
2021/01/28 10:50:45;;;;;;;16.23;8.35;;;;;;;;;;6276330;22;20084;-89
2021/01/28 10:53:16;;;;;;;13.23;8.63;;;;;;;;;;6274799;22;20027;-89
2021/01/28 10:55:42;;;;;;;13.75;8.80;;;;;;;;;;6275658;22;20038;-89
2021/01/28 10:58:10;;;;;;;11.88;7.78;;;;;;;;;;6276958;22;20076;-88
2021/01/28 11:00:36;;;;;;;13.50;7.30;;;;;;;;;;6284326;22;20332;-89
2021/01/28 11:03:10;;;;;;;11.13;7.40;;;;;;;;;;6283229;22;20180;-90
2021/01/28 11:05:37;;;;;;;11.52;7.03;;;;;;;;;;6284467;22;20187;-91
2021/01/28 11:08:07;;;;;;;11.18;7.00;;;;;;;;;;6281370;22;20020;-90
2021/01/28 11:10:33;;;;;;;13.40;6.93;;;;;;;;;;6282939;22;20058;-90
2021/01/28 11:13:00;;;;;;;12.20;7.20;;;;;;;;;;6275215;22;20348;-90
2021/01/28 11:15:28;;;;;;;10.27;6.70;;;;;;;;;;6273576;22;20555;-90
2021/01/28 11:17:58;;;;;;;13.35;7.88;;;;;;;;;;6277873;22;20057;-90
2021/01/28 11:20:27;;;;;;;11.20;6.65;;;;;;;;;;6283741;22;20031;-90
2021/01/28 11:22:56;;;;;;;17.23;7.00;;;;;;;;;;6277891;22;20035;-90
2021/01/28 11:25:32;;;;;;;11.60;6.97;;;;;;;;;;6274790;22;20023;-91
2021/01/28 11:28:02;;;;;;;12.82;7.22;;;;;;;;;;6276639;22;20027;-89
2021/01/28 11:30:34;;;;;;;12.00;6.53;;;;;;;;;;6276172;22;20039;-89
2021/01/28 11:33:02;;;;;;;10.98;6.70;;;;;;;;;;6279671;22;20062;-88
2021/01/28 11:35:33;;;;;;;12.43;7.30;;;;;;;;;;6283777;22;20109;-92
2021/01/28 11:38:00;;;;;;;14.65;7.45;;;;;;;;;;6276970;22;20023;-90
2021/01/28 11:40:36;;;;;;;12.32;6.43;;;;;;;;;;6278216;22;20051;-90
2021/01/28 11:43:08;;;;;;;11.15;6.95;;;;;;;;;;6282096;22;20050;-90
2021/01/28 11:45:36;;;;;;;19.20;7.47;;;;;;;;;;6285014;22;20050;-89
2021/01/28 11:48:07;;;;;;;13.77;6.88;;;;;;;;;;6291240;22;20037;-90
2021/01/28 11:50:39;;;;;;;13.68;7.00;;;;;;;;;;6293956;22;20012;-89
2021/01/28 11:53:18;;;;;;;12.60;6.95;;;;;;;;;;6281312;22;20083;-90
2021/01/28 11:55:44;;;;;;;15.15;6.13;;;;;;;;;;6277523;22;20023;-89
2021/01/28 11:58:11;;;;;;;10.40;5.72;;;;;;;;;;6278415;22;20206;-89
2021/01/28 12:00:41;;;;;;;10.25;5.85;;;;;;;;;;6293349;22;20098;-89
2021/01/28 12:03:07;;;;;;;12.82;6.85;;;;;;;;;;6287279;22;20028;-89
2021/01/28 12:05:36;;;;;;;16.30;7.88;;;;;;;;;;6284391;22;20059;-89
2021/01/28 12:08:08;;;;;;;14.85;7.53;;;;;;;;;;6286714;22;20082;-89
2021/01/28 12:10:40;;;;;;;10.73;6.90;;;;;;;;;;6292857;22;20012;-89
2021/01/28 12:13:13;;;;;;;13.00;6.95;;;;;;;;;;6281105;22;20039;-89
2021/01/28 12:15:44;;;;;;;12.40;6.85;;;;;;;;;;6287411;22;20035;-88
2021/01/28 12:18:15;;;;;;;13.02;7.65;;;;;;;;;;6278220;22;20023;-89
2021/01/28 12:20:48;;;;;;;15.80;7.63;;;;;;;;;;6279322;22;20094;-89
2021/01/28 12:23:15;;;;;;;12.48;6.93;;;;;;;;;;6281102;22;20223;-88
2021/01/28 12:25:46;;;;;;;13.05;7.57;;;;;;;;;;6278987;22;20300;-88
2021/01/28 12:28:13;;;;;;;20.38;8.15;;;;;;;;;;6287374;22;20035;-89
2021/01/28 12:30:40;;;;;;;13.27;7.53;;;;;;;;;;6279558;22;20028;-89
2021/01/28 12:33:06;;;;;;;13.55;7.68;;;;;;;;;;6282707;22;20027;-89
2021/01/28 12:35:37;;;;;;;13.35;7.80;;;;;;;;;;6281984;22;20034;-90
2021/01/28 12:38:10;;;;;;;12.65;7.65;;;;;;;;;;6281491;22;20027;-90
2021/01/28 12:40:38;;;;;;;14.75;8.13;;;;;;;;;;6278585;22;20251;-88
2021/01/28 12:43:07;;;;;;;16.30;8.88;;;;;;;;;;6276728;22;20279;-89
2021/01/28 12:45:34;;;;;;;16.35;8.90;;;;;;;;;;6287331;22;20024;-89
2021/01/28 12:48:05;;;;;;;16.27;9.10;;;;;;;;;;6286498;22;20141;-89
2021/01/28 12:50:40;;;;;;;15.88;8.68;;;;;;;;;;6282324;22;20015;-91
2021/01/28 12:53:06;;;;;;;13.05;7.63;;;;;;;;;;6291323;22;20016;-89
2021/01/28 12:55:44;;;;;;;12.75;7.85;;;;;;;;;;6284364;22;20476;-89
2021/01/28 12:58:11;;;;;;;15.80;9.00;;;;;;;;;;6282198;22;20056;-90
2021/01/28 13:00:38;;;;;;;18.98;8.75;;;;;;;;;;6275320;22;20031;-89
2021/01/28 13:03:12;;;;;;;20.23;8.60;;;;;;;;;;6278495;22;20031;-89
2021/01/28 13:05:41;;;;;;;16.67;8.18;;;;;;;;;;6280334;22;20031;-89
2021/01/28 13:08:08;;;;;;;13.27;7.70;;;;;;;;;;6275490;22;20028;-89
2021/01/28 13:10:42;;;;;;;14.38;8.63;;;;;;;;;;6271122;22;20028;-89
2021/01/28 13:13:22;;;;;;;14.30;7.53;;;;;;;;;;6276505;22;20020;-89
2021/01/28 13:16:01;;;;;;;14.25;7.60;;;;;;;;;;6276329;22;20024;-88
2021/01/28 13:18:30;;;;;;;13.48;7.03;;;;;;;;;;6274060;22;20035;-89
2021/01/28 13:20:57;;;;;;;15.63;6.97;;;;;;;;;;6273306;22;20027;-89
2021/01/28 13:23:26;;;;;;;18.48;7.97;;;;;;;;;;6275153;22;20019;-89
2021/01/28 13:26:05;;;;;;;12.00;6.72;;;;;;;;;;6276072;22;20397;-89
2021/01/28 13:28:33;;;;;;;12.38;7.15;;;;;;;;;;6274045;22;20028;-89
2021/01/28 13:31:01;;;;;;;11.68;6.80;;;;;;;;;;6274554;22;20034;-88
2021/01/28 13:33:30;;;;;;;13.18;6.97;;;;;;;;;;6274311;22;20032;-88
2021/01/28 13:35:56;;;;;;;14.93;7.65;;;;;;;;;;6270477;22;20027;-89
2021/01/28 13:38:22;;;;;;;14.88;8.40;;;;;;;;;;6274183;22;20027;-89
2021/01/28 13:40:56;;;;;;;12.68;8.20;;;;;;;;;;6275007;22;20023;-89
2021/01/28 13:43:28;;;;;;;14.13;6.53;;;;;;;;;;6275131;22;20425;-89
2021/01/28 13:46:02;;;;;;;11.48;6.57;;;;;;;;;;6276203;22;20027;-89
2021/01/28 13:48:42;;;;;;;9.48;6.70;;;;;;;;;;6278187;22;20027;-89
2021/01/28 13:51:22;;;;;;;12.98;7.10;;;;;;;;;;6276841;22;20038;-89
2021/01/28 13:53:58;;;;;;;8.07;5.55;;;;;;;;;;6278876;22;20083;-89
2021/01/28 13:56:26;;;;;;;11.68;6.22;;;;;;;;;;6272741;22;20096;-89
2021/01/28 13:59:00;;;;;;;11.38;6.25;;;;;;;;;;6272498;22;20027;-89
2021/01/28 14:01:30;;;;;;;10.18;6.32;;;;;;;;;;6274676;22;20031;-89
2021/01/28 14:04:10;;;;;;;11.00;5.82;;;;;;;;;;6269652;22;20054;-89
2021/01/28 14:06:42;;;;;;;11.25;6.50;;;;;;;;;;6271978;22;20234;-89
2021/01/28 14:09:10;;;;;;;10.57;6.13;;;;;;;;;;6272071;22;20059;-88
2021/01/28 14:11:37;;;;;;;12.88;6.78;;;;;;;;;;6272137;22;20043;-88
2021/01/28 14:14:22;;;;;;;14.27;6.90;;;;;;;;;;6271726;22;20028;-88
2021/01/28 14:16:52;;;;;;;12.77;6.90;;;;;;;;;;6275075;22;20152;-89
2021/01/28 14:19:32;;;;;;;13.63;7.10;;;;;;;;;;6274715;22;20128;-88
2021/01/28 14:21:58;;;;;;;11.10;7.45;;;;;;;;;;6272357;22;20105;-88
2021/01/28 14:28:21;;;;;;;12.07;6.80;;;;;;;;;;6152359;23;20026;-88
2021/01/28 14:30:47;;;;;;;13.60;7.18;;;;;;;;;;6148079;23;20100;-88
2021/01/28 14:33:14;;;;;;;11.18;6.70;;;;;;;;;;6235103;22;20098;-88
2021/01/28 14:35:45;;;;;;;12.57;6.95;;;;;;;;;;6272525;22;20028;-88
2021/01/28 14:38:13;;;;;;;18.20;8.30;;;;;;;;;;6274477;22;20082;-88
2021/01/28 14:40:42;;;;;;;11.02;7.07;;;;;;;;;;6273249;22;20256;-87
2021/01/28 14:43:11;;;;;;;12.93;7.70;;;;;;;;;;6277370;22;20299;-88
2021/01/28 14:45:41;;;;;;;12.80;7.53;;;;;;;;;;6272929;22;20055;-88
2021/01/28 14:48:10;;;;;;;19.77;12.63;;;;;;;;;;6253487;22;20235;-88
2021/01/28 14:50:44;;;;;;;20.92;8.57;;;;;;;;;;6292437;22;20050;-88
2021/01/28 14:53:11;;;;;;;14.57;9.23;;;;;;;;;;6294415;22;20027;-88
2021/01/28 14:55:41;;;;;;;14.00;8.73;;;;;;;;;;6296166;22;20039;-88
2021/01/28 14:58:14;;;;;;;15.50;9.50;;;;;;;;;;6291792;22;20022;-87
2021/01/28 15:00:47;;;;;;;24.83;12.48;;;;;;;;;;6292012;22;20015;-88
2021/01/28 15:03:14;;;;;;;16.73;10.52;;;;;;;;;;6290353;22;20023;-88
2021/01/28 15:05:40;;;;;;;17.55;11.00;;;;;;;;;;6286016;22;20105;-88
2021/01/28 15:08:11;;;;;;;20.50;12.02;;;;;;;;;;6289474;22;20028;-88
2021/01/28 15:10:41;;;;;;;21.75;12.05;;;;;;;;;;6286432;22;20055;-89